Time;durP1;ratioP1;P1;durP2;ratioP2;P2;SDS_P1;SDS_P2;PMS_P1;PMS_P2;Temp;Humidity;BMP_temperature;BMP_pressure;BME280_temperature;BME280_humidity;BME280_pressure;Samples;Min_cycle;Max_cycle;Signal;HPM_P1;HPM_P2
2022/04/07 00:00:05;;;;;;;3.70;2.35;;;;;;;14.51;57.59;99221.19;5114562;27;20286;-79
2022/04/07 00:02:33;;;;;;;3.97;3.22;;;;;;;14.61;57.43;99231.47;5131166;27;20200;-80
2022/04/07 00:05:00;;;;;;;2.90;2.70;;;;;;;14.49;57.59;99207.28;5134518;27;20216;-80
2022/04/07 00:07:27;;;;;;;3.90;3.15;;;;;;;14.58;57.80;99235.84;5113396;27;20196;-78
2022/04/07 00:09:53;;;;;;;5.80;3.67;;;;;;;14.42;57.99;99218.69;5113407;28;20329;-78
2022/04/07 00:12:20;;;;;;;4.43;3.70;;;;;;;14.33;58.88;99223.13;5119201;27;20738;-77
2022/04/07 00:14:47;;;;;;;3.38;3.05;;;;;;;14.28;58.47;99193.66;5114116;27;20266;-80
2022/04/07 00:17:14;;;;;;;4.10;3.50;;;;;;;14.43;58.78;99210.00;5097493;27;20255;-78
2022/04/07 00:19:42;;;;;;;4.28;3.22;;;;;;;14.47;58.88;99212.53;5114308;27;20225;-79
2022/04/07 00:22:08;;;;;;;4.07;3.67;;;;;;;14.34;59.45;99204.00;5120988;27;20189;-79
2022/04/07 00:24:35;;;;;;;4.03;3.00;;;;;;;14.29;59.01;99190.16;5133383;27;20192;-78
2022/04/07 00:27:02;;;;;;;3.13;2.75;;;;;;;14.31;59.55;99204.03;5124904;27;20273;-78
2022/04/07 00:29:29;;;;;;;8.48;3.13;;;;;;;14.19;59.15;99170.31;5113020;28;20205;-76
2022/04/07 00:31:57;;;;;;;3.25;2.95;;;;;;;14.28;59.36;99182.34;5112688;27;20262;-78
2022/04/07 00:34:24;;;;;;;3.75;3.38;;;;;;;13.97;59.84;99131.53;5118380;27;20229;-77
2022/04/07 00:36:53;;;;;;;4.75;3.25;;;;;;;14.26;60.26;99171.97;5115917;27;20190;-78
2022/04/07 00:39:19;;;;;;;3.55;3.25;;;;;;;13.98;60.27;99147.16;5112616;28;20842;-81
2022/04/07 00:41:46;;;;;;;3.92;3.53;;;;;;;14.11;60.05;99164.34;5118110;27;20733;-80
2022/04/07 00:44:13;;;;;;;3.42;3.15;;;;;;;14.16;60.25;99152.09;5131394;27;20629;-77
2022/04/07 00:46:40;;;;;;;4.15;3.53;;;;;;;14.17;60.31;99156.44;5118205;27;20202;-78
2022/04/07 00:49:08;;;;;;;3.03;2.72;;;;;;;14.24;60.39;99154.59;5113423;27;20644;-79
2022/04/07 00:51:36;;;;;;;5.65;3.60;;;;;;;14.07;60.35;99147.03;5120372;27;20204;-79
2022/04/07 00:54:04;;;;;;;4.63;3.30;;;;;;;13.94;61.14;99123.78;5124976;27;20701;-77
2022/04/07 00:56:31;;;;;;;4.93;3.00;;;;;;;14.11;60.82;99148.72;5117896;27;20617;-76
2022/04/07 00:58:58;;;;;;;4.95;2.90;;;;;;;14.10;61.26;99151.31;5121936;27;20202;-79
2022/04/07 01:01:28;;;;;;;3.35;3.00;;;;;;;14.11;60.75;99148.72;5113408;27;20260;-79
2022/04/07 01:03:55;;;;;;;4.20;2.97;;;;;;;14.29;60.41;99137.16;5118626;27;20192;-82
2022/04/07 01:06:22;;;;;;;3.55;3.35;;;;;;;14.05;60.25;99112.31;5132086;27;20265;-78
2022/04/07 01:08:49;;;;;;;3.33;2.97;;;;;;;14.15;60.46;99126.94;5132126;27;20219;-78
2022/04/07 01:11:17;;;;;;;4.40;2.85;;;;;;;14.19;60.61;99126.00;5128672;27;20197;-78
2022/04/07 01:13:46;;;;;;;3.80;3.50;;;;;;;14.10;60.66;99109.63;5116383;27;20204;-80
2022/04/07 01:16:13;;;;;;;2.97;2.78;;;;;;;14.16;60.57;99120.81;5113589;27;20197;-77
2022/04/07 01:18:39;;;;;;;3.30;3.05;;;;;;;14.20;60.27;99127.72;5112130;27;20212;-77
2022/04/07 01:21:07;;;;;;;4.90;3.53;;;;;;;14.20;60.06;99116.41;5077051;28;20241;-78
2022/04/07 01:23:36;;;;;;;4.07;3.30;;;;;;;14.13;60.43;99122.59;5112022;27;20262;-77
2022/04/07 01:26:05;;;;;;;5.32;3.55;;;;;;;14.10;60.67;99126.13;5112339;27;20237;-78
2022/04/07 01:28:33;;;;;;;4.07;3.78;;;;;;;13.99;60.90;99117.59;5117043;27;20688;-79
2022/04/07 01:30:59;;;;;;;3.88;3.58;;;;;;;13.85;61.29;99098.69;5132467;27;20644;-79
2022/04/07 01:33:27;;;;;;;3.97;3.67;;;;;;;13.85;61.76;99119.53;5130851;27;20204;-79
2022/04/07 01:35:54;;;;;;;3.85;3.55;;;;;;;13.82;62.27;99115.22;5096353;27;20193;-79
2022/04/07 01:38:21;;;;;;;3.90;3.60;;;;;;;13.76;61.96;99107.50;5113521;27;20196;-80
2022/04/07 01:40:49;;;;;;;3.75;3.15;;;;;;;13.79;62.69;99106.59;5112219;27;20685;-79
2022/04/07 01:43:17;;;;;;;3.47;3.28;;;;;;;13.67;62.51;99091.97;5128901;27;20614;-78
2022/04/07 01:45:45;;;;;;;4.03;3.72;;;;;;;13.77;62.06;99092.72;5117884;27;20271;-78
2022/04/07 01:48:13;;;;;;;3.72;3.38;;;;;;;13.73;62.37;99089.28;5131986;27;20196;-79
2022/04/07 01:50:40;;;;;;;4.18;3.88;;;;;;;13.33;62.85;99047.31;5111380;28;20197;-78
2022/04/07 01:53:07;;;;;;;4.60;3.42;;;;;;;13.53;63.46;99080.03;5115225;27;20220;-79
2022/04/07 01:55:34;;;;;;;4.25;3.65;;;;;;;13.43;63.43;99068.00;5129310;27;20637;-79
2022/04/07 01:58:01;;;;;;;4.20;3.90;;;;;;;13.54;63.42;99055.72;5114727;27;20224;-79
2022/04/07 02:00:30;;;;;;;4.05;3.75;;;;;;;13.41;63.33;99036.81;5129523;27;20696;-79
2022/04/07 02:02:56;;;;;;;4.78;3.88;;;;;;;13.43;63.45;99048.03;5124021;27;20199;-79
2022/04/07 02:05:24;;;;;;;5.13;4.35;;;;;;;13.37;63.49;99037.72;5122339;27;20203;-79
2022/04/07 02:07:50;;;;;;;2.60;2.42;;;;;;;13.48;62.66;99014.13;5095084;28;20277;-80
2022/04/07 02:10:18;;;;;;;6.93;4.18;;;;;;;13.47;62.32;99012.41;5131724;27;20192;-76
2022/04/07 02:12:45;;;;;;;5.30;4.00;;;;;;;13.54;62.25;99024.47;5129094;27;20192;-77
2022/04/07 02:15:13;;;;;;;5.75;3.65;;;;;;;13.74;61.46;99032.84;5116571;27;20665;-77
2022/04/07 02:17:42;;;;;;;5.50;3.97;;;;;;;13.56;61.38;98996.63;5110878;28;20204;-78
2022/04/07 02:20:11;;;;;;;5.43;3.80;;;;;;;13.64;61.33;99006.06;5126286;28;20273;-77
2022/04/07 02:22:37;;;;;;;4.82;3.65;;;;;;;13.66;60.94;98993.06;5124768;27;20700;-78
2022/04/07 02:25:08;;;;;;;7.93;3.53;;;;;;;13.87;60.02;99004.00;5124361;28;20609;-79
2022/04/07 02:27:36;;;;;;;4.10;3.70;;;;;;;13.93;59.80;99000.44;5113508;27;20201;-79
2022/04/07 02:30:05;;;;;;;3.83;3.53;;;;;;;13.95;59.46;98985.63;5111102;28;20558;-80
2022/04/07 02:32:32;;;;;;;4.47;4.05;;;;;;;13.88;59.80;98984.00;5125270;28;20258;-77
2022/04/07 02:35:00;;;;;;;4.82;3.78;;;;;;;13.81;60.11;98972.81;5119792;27;20291;-80
2022/04/07 02:37:27;;;;;;;4.00;3.70;;;;;;;13.80;59.91;98965.03;5125362;27;20205;-78
2022/04/07 02:39:54;;;;;;;4.70;3.88;;;;;;;13.87;60.27;98977.09;5111115;28;20696;-80
2022/04/07 02:42:21;;;;;;;4.40;4.00;;;;;;;13.62;60.06;98939.28;5128089;28;20208;-81
2022/04/07 02:44:48;;;;;;;3.80;3.50;;;;;;;13.75;59.71;98964.25;5122709;28;20208;-80
2022/04/07 02:47:15;;;;;;;5.47;3.35;;;;;;;13.83;60.11;98954.56;5129239;27;20298;-78
2022/04/07 02:49:42;;;;;;;4.28;3.35;;;;;;;13.83;59.70;98950.22;5120349;27;20703;-78
2022/04/07 02:52:11;;;;;;;3.15;2.85;;;;;;;13.53;60.44;98923.78;5114019;28;20197;-79
2022/04/07 02:54:39;;;;;;;3.78;3.33;;;;;;;13.71;60.35;98955.63;5123364;27;20200;-78
2022/04/07 02:57:06;;;;;;;4.28;3.88;;;;;;;13.65;60.51;98965.28;5122285;27;20241;-78
2022/04/07 02:59:33;;;;;;;3.67;3.30;;;;;;;13.71;60.15;98957.34;5132241;27;20628;-81
2022/04/07 03:02:00;;;;;;;4.10;3.80;;;;;;;13.70;59.90;98953.00;5114869;27;20757;-79
2022/04/07 03:04:27;;;;;;;3.38;3.17;;;;;;;13.41;59.68;98904.84;5114631;28;20257;-79
2022/04/07 03:06:54;;;;;;;3.45;3.15;;;;;;;13.60;59.99;98944.50;5130522;27;20197;-77
2022/04/07 03:09:22;;;;;;;5.20;3.80;;;;;;;13.68;59.80;98931.34;5127933;27;20209;-79
2022/04/07 03:11:49;;;;;;;4.00;3.60;;;;;;;13.77;59.28;98928.59;5127997;27;20445;-79
2022/04/07 03:14:16;;;;;;;4.20;3.42;;;;;;;13.80;59.29;98913.81;5128720;27;20742;-78
2022/04/07 03:16:48;;;;;;;6.03;3.58;;;;;;;13.74;58.94;98910.41;5114233;28;20202;-78
2022/04/07 03:19:15;;;;;;;3.28;3.05;;;;;;;13.66;58.78;98904.50;5114442;28;20193;-78
2022/04/07 03:21:42;;;;;;;3.65;3.35;;;;;;;13.40;59.46;98884.94;5113907;27;20221;-78
2022/04/07 03:24:09;;;;;;;5.22;3.53;;;;;;;13.61;59.49;98901.09;5117670;27;20200;-79
2022/04/07 03:26:38;;;;;;;5.72;3.08;;;;;;;13.63;59.59;98896.69;5121354;27;20258;-79
2022/04/07 03:29:04;;;;;;;4.32;3.10;;;;;;;13.52;59.82;98880.41;5117014;27;20201;-78
2022/04/07 03:31:31;;;;;;;3.33;3.13;;;;;;;13.46;59.95;98864.88;5098168;27;20192;-78
2022/04/07 03:33:58;;;;;;;3.67;3.42;;;;;;;13.43;59.56;98876.19;5134087;27;20201;-78
2022/04/07 03:36:25;;;;;;;3.83;3.42;;;;;;;13.52;59.69;98880.41;5133069;27;20601;-78
2022/04/07 03:38:52;;;;;;;4.57;4.18;;;;;;;13.37;58.90;98835.53;5134313;27;20196;-80
2022/04/07 03:41:18;;;;;;;3.35;2.97;;;;;;;13.57;59.10;98862.94;5129631;27;20245;-78
2022/04/07 03:43:47;;;;;;;3.53;3.25;;;;;;;13.76;58.30;98864.38;5078923;28;20216;-78
2022/04/07 03:46:21;;;;;;;6.97;3.08;;;;;;;13.74;57.86;98866.13;5119925;27;20645;-75
2022/04/07 03:48:48;;;;;;;3.30;3.03;;;;;;;13.72;57.91;98853.16;5113560;28;20614;-78
2022/04/07 03:51:15;;;;;;;4.68;3.90;;;;;;;13.60;57.95;98855.94;5114051;28;20197;-79
2022/04/07 03:53:41;;;;;;;3.15;2.88;;;;;;;13.68;58.46;98850.63;5114792;27;20205;-81
2022/04/07 03:56:08;;;;;;;3.65;3.35;;;;;;;13.73;57.74;98854.84;5130836;27;20204;-79
2022/04/07 03:58:35;;;;;;;5.65;4.00;;;;;;;13.62;57.21;98829.91;5121636;27;20185;-79
2022/04/07 04:01:03;;;;;;;11.48;3.15;;;;;;;13.84;57.21;98841.66;5128799;27;20220;-76
2022/04/07 04:03:30;;;;;;;6.15;3.53;;;;;;;13.80;56.78;98834.78;5113475;27;20212;-79
2022/04/07 04:05:57;;;;;;;2.90;2.65;;;;;;;13.78;56.40;98816.56;5125047;27;20203;-78
2022/04/07 04:08:24;;;;;;;6.47;3.45;;;;;;;13.75;56.56;98807.94;5125712;27;20288;-77
2022/04/07 04:10:50;;;;;;;2.17;2.08;;;;;;;13.97;56.15;98819.69;5131034;27;20204;-77
2022/04/07 04:13:17;;;;;;;3.88;3.47;;;;;;;13.90;55.92;98826.78;5113165;28;20205;-77
2022/04/07 04:15:44;;;;;;;5.13;2.70;;;;;;;13.94;55.90;98805.88;5124930;27;20200;-77
2022/04/07 04:18:12;;;;;;;4.13;2.95;;;;;;;14.07;55.49;98818.63;5132067;27;20188;-79
2022/04/07 04:20:39;;;;;;;5.35;2.90;;;;;;;14.12;55.03;98808.13;5093902;28;20237;-77
2022/04/07 04:23:06;;;;;;;3.35;2.80;;;;;;;14.07;54.45;98796.91;5124710;27;20272;-78
2022/04/07 04:25:33;;;;;;;4.38;2.83;;;;;;;14.18;54.32;98803.63;5121730;27;20622;-78
2022/04/07 04:27:59;;;;;;;3.50;2.85;;;;;;;14.28;53.75;98792.13;5124385;27;20205;-77
2022/04/07 04:30:26;;;;;;;3.45;2.67;;;;;;;14.43;53.29;98800.56;5129163;27;20672;-80
2022/04/07 04:32:53;;;;;;;4.03;3.00;;;;;;;14.39;53.42;98787.59;5131086;27;20196;-78
2022/04/07 04:35:21;;;;;;;12.35;3.33;;;;;;;14.45;53.43;98783.97;5124176;27;20288;-83
2022/04/07 04:37:48;;;;;;;3.97;3.55;;;;;;;14.67;52.77;98782.63;5112935;28;20281;-79
2022/04/07 04:40:15;;;;;;;4.38;3.53;;;;;;;14.73;52.74;98774.66;5112895;28;20198;-79
2022/04/07 04:42:42;;;;;;;7.88;3.13;;;;;;;14.73;52.11;98773.81;5109417;27;20197;-81
2022/04/07 04:45:09;;;;;;;3.10;2.70;;;;;;;14.68;51.91;98750.44;5119360;27;20197;-81
2022/04/07 04:47:36;;;;;;;5.10;3.30;;;;;;;14.94;51.78;98778.53;5132494;27;20652;-79
2022/04/07 04:50:05;;;;;;;3.33;3.13;;;;;;;14.85;51.66;98763.06;5133234;27;20291;-78
2022/04/07 04:52:33;;;;;;;6.47;2.92;;;;;;;14.82;52.02;98774.44;5125875;27;20387;-82
2022/04/07 04:55:00;;;;;;;3.25;3.05;;;;;;;14.83;52.97;98791.84;5117894;27;20650;-80
2022/04/07 04:57:29;;;;;;;5.13;3.95;;;;;;;15.11;52.28;98799.88;5115224;27;20336;-78
2022/04/07 04:59:55;;;;;;;2.90;2.70;;;;;;;15.09;52.16;98792.97;5116289;27;20205;-78
2022/04/07 05:02:22;;;;;;;4.70;3.60;;;;;;;15.20;52.04;98791.81;5119553;27;20236;-78
2022/04/07 05:04:49;;;;;;;3.47;3.13;;;;;;;15.27;51.69;98766.41;5113197;27;20250;-78
2022/04/07 05:07:16;;;;;;;3.83;3.40;;;;;;;15.37;51.54;98773.97;5092870;28;20208;-83
2022/04/07 05:09:44;;;;;;;6.00;3.53;;;;;;;15.02;51.37;98711.31;5112080;28;20252;-79
2022/04/07 05:12:11;;;;;;;3.78;3.20;;;;;;;15.49;51.13;98783.28;5121511;27;20724;-79
2022/04/07 05:14:38;;;;;;;6.00;2.63;;;;;;;14.92;51.27;98681.13;5114385;27;20205;-82
2022/04/07 05:17:05;;;;;;;3.28;3.08;;;;;;;15.43;51.04;98745.97;5113886;27;20194;-78
2022/04/07 05:19:32;;;;;;;2.90;2.70;;;;;;;15.21;51.64;98732.63;5118208;27;20212;-80
2022/04/07 05:21:59;;;;;;;3.50;3.30;;;;;;;15.68;52.25;98736.63;5103192;27;20249;-82
2022/04/07 05:24:26;;;;;;;3.45;2.67;;;;;;;15.69;51.06;98744.44;5120304;27;20198;-81
2022/04/07 05:26:54;;;;;;;3.38;2.92;;;;;;;15.93;50.87;98758.59;5115266;27;20220;-81
2022/04/07 05:29:20;;;;;;;2.70;2.47;;;;;;;15.54;51.11;98754.44;5122676;27;20599;-80
2022/04/07 05:31:47;;;;;;;6.45;3.50;;;;;;;15.51;51.51;98725.78;5119994;27;20258;-79
2022/04/07 05:34:15;;;;;;;3.42;3.10;;;;;;;15.69;51.23;98743.59;5120676;27;20198;-82
2022/04/07 05:36:43;;;;;;;9.73;3.00;;;;;;;15.71;51.61;98739.16;5120819;27;20212;-81
2022/04/07 05:39:10;;;;;;;10.10;3.35;;;;;;;15.75;51.09;98727.72;5113194;27;20204;-81
2022/04/07 05:41:37;;;;;;;3.28;2.97;;;;;;;15.94;50.90;98728.94;5108779;28;20232;-84
2022/04/07 05:44:06;;;;;;;3.30;3.00;;;;;;;16.03;50.68;98726.06;5077468;27;20211;-81
2022/04/07 05:46:32;;;;;;;4.80;3.58;;;;;;;16.13;50.41;98732.72;5132963;27;20200;-84
2022/04/07 05:48:59;;;;;;;4.28;3.10;;;;;;;15.75;49.90;98696.38;5128189;27;20197;-79
2022/04/07 05:51:27;;;;;;;3.30;3.05;;;;;;;15.98;50.31;98730.53;5127814;27;20224;-80
2022/04/07 05:53:54;;;;;;;5.32;3.42;;;;;;;16.02;50.28;98726.06;5128112;27;20265;-83
2022/04/07 05:56:20;;;;;;;3.60;3.30;;;;;;;15.88;50.40;98690.75;5113712;27;20645;-77
2022/04/07 05:58:47;;;;;;;3.05;2.85;;;;;;;16.16;49.87;98713.50;5126733;27;20273;-82
2022/04/07 06:01:17;;;;;;;6.05;3.40;;;;;;;16.33;49.70;98701.63;5119347;27;20225;-80
2022/04/07 06:03:44;;;;;;;8.75;3.42;;;;;;;16.41;49.26;98693.50;5112977;27;20209;-79
2022/04/07 06:06:11;;;;;;;5.47;2.92;;;;;;;16.53;48.83;98701.00;5115257;28;20208;-76
2022/04/07 06:08:38;;;;;;;5.60;3.50;;;;;;;16.61;49.24;98698.19;5122642;27;20212;-81
2022/04/07 06:11:04;;;;;;;12.50;3.10;;;;;;;16.70;48.54;98685.66;5124109;28;20592;-81
2022/04/07 06:13:31;;;;;;;9.15;3.25;;;;;;;16.97;48.92;98678.69;5127552;27;20193;-79
2022/04/07 06:15:58;;;;;;;4.03;3.45;;;;;;;16.48;48.10;98589.56;5125268;27;20746;-82
2022/04/07 06:18:27;;;;;;;6.20;3.05;;;;;;;17.10;48.02;98648.53;5117252;28;20678;-80
2022/04/07 06:20:54;;;;;;;7.63;3.15;;;;;;;17.14;47.38;98671.09;5112173;28;20205;-81
2022/04/07 06:23:21;;;;;;;3.17;2.78;;;;;;;17.25;47.42;98649.78;5107407;28;20396;-82
2022/04/07 06:25:47;;;;;;;5.40;2.63;;;;;;;17.46;46.60;98627.19;5109019;27;20213;-82
2022/04/07 06:28:14;;;;;;;3.30;3.00;;;;;;;17.29;46.46;98639.16;5111248;28;20212;-79
2022/04/07 06:30:41;;;;;;;4.25;3.08;;;;;;;17.75;46.15;98659.34;5111326;28;20197;-78
2022/04/07 06:33:08;;;;;;;3.72;3.22;;;;;;;17.71;46.46;98647.25;5111088;28;20277;-83
2022/04/07 06:35:36;;;;;;;4.40;3.20;;;;;;;17.95;46.02;98660.34;5110936;28;20205;-79
2022/04/07 06:38:03;;;;;;;7.32;3.10;;;;;;;17.74;46.09;98646.28;5111160;28;20201;-80
2022/04/07 06:40:31;;;;;;;4.40;3.20;;;;;;;18.10;45.74;98642.28;5114020;27;20209;-78
2022/04/07 06:42:59;;;;;;;3.13;2.80;;;;;;;18.26;45.00;98647.81;5120190;27;20639;-83
2022/04/07 06:45:27;;;;;;;3.78;3.20;;;;;;;17.96;44.70;98664.69;5125488;27;20211;-81
2022/04/07 06:47:54;;;;;;;12.25;3.50;;;;;;;17.87;45.72;98668.53;5133135;27;20209;-81
2022/04/07 06:50:23;;;;;;;4.00;2.92;;;;;;;18.07;44.35;98650.28;5131749;27;20597;-84
2022/04/07 06:52:52;;;;;;;3.67;2.92;;;;;;;18.04;42.75;98647.78;5116110;27;20209;-79
2022/04/07 06:55:19;;;;;;;2.75;2.55;;;;;;;17.51;42.55;98583.34;5125057;27;20220;-81
2022/04/07 06:57:51;;;;;;;3.38;3.08;;;;;;;17.94;42.09;98642.94;5131285;27;20232;-81
2022/04/07 07:00:19;;;;;;;15.25;4.15;;;;;;;17.97;41.43;98612.22;5124791;27;20205;-78
2022/04/07 07:02:47;;;;;;;3.85;2.88;;;;;;;18.27;41.24;98647.72;5121278;27;20726;-79
2022/04/07 07:05:14;;;;;;;3.65;2.50;;;;;;;18.37;41.23;98653.47;5113558;27;20595;-79
2022/04/07 07:07:43;;;;;;;3.80;2.95;;;;;;;18.37;40.78;98648.22;5118060;27;20209;-81
2022/04/07 07:10:12;;;;;;;7.25;3.30;;;;;;;18.46;41.24;98658.38;5115413;27;20643;-80
2022/04/07 07:12:39;;;;;;;4.93;2.65;;;;;;;18.60;40.91;98669.19;5111038;28;20206;-80
2022/04/07 07:15:06;;;;;;;6.75;2.75;;;;;;;18.39;40.74;98617.53;5111423;28;20204;-78
2022/04/07 07:17:39;;;;;;;4.95;3.03;;;;;;;18.71;40.04;98663.53;5121764;27;20688;-81
2022/04/07 07:20:06;;;;;;;3.28;2.80;;;;;;;18.47;40.37;98670.59;5110795;28;20767;-79
2022/04/07 07:22:34;;;;;;;5.05;2.70;;;;;;;18.33;40.06;98665.84;5110626;28;20225;-78
2022/04/07 07:25:01;;;;;;;5.80;2.22;;;;;;;18.24;39.79;98676.72;5110202;28;20880;-80
2022/04/07 07:27:29;;;;;;;4.57;2.92;;;;;;;18.64;39.37;98688.31;5109793;28;20661;-76
2022/04/07 07:29:55;;;;;;;5.53;2.80;;;;;;;18.67;37.80;98694.28;5110424;27;20740;-76
2022/04/07 07:32:22;;;;;;;2.95;2.72;;;;;;;18.36;37.89;98666.66;5110104;28;20258;-77
2022/04/07 07:34:49;;;;;;;6.03;2.63;;;;;;;18.62;37.68;98674.41;5127581;27;20710;-76
2022/04/07 07:37:18;;;;;;;9.02;2.85;;;;;;;18.57;37.60;98674.59;5130065;27;20586;-79
2022/04/07 07:39:46;;;;;;;3.70;2.97;;;;;;;18.58;37.73;98678.91;5094689;27;20284;-78
2022/04/07 07:42:12;;;;;;;4.65;2.65;;;;;;;18.17;37.85;98658.63;5131247;27;20228;-80
2022/04/07 07:44:40;;;;;;;4.40;3.00;;;;;;;18.08;37.71;98657.25;5131736;27;20215;-78
2022/04/07 07:47:07;;;;;;;4.60;3.28;;;;;;;18.03;38.34;98661.78;5127052;27;20215;-79
2022/04/07 07:49:35;;;;;;;7.15;2.92;;;;;;;18.12;38.78;98658.81;5121892;27;20223;-80
2022/04/07 07:52:02;;;;;;;6.93;3.05;;;;;;;18.07;38.21;98652.91;5124331;27;20276;-78
2022/04/07 07:54:28;;;;;;;4.15;3.05;;;;;;;17.88;38.31;98620.41;5126664;27;20212;-77
2022/04/07 07:56:55;;;;;;;6.90;3.00;;;;;;;17.95;37.92;98650.72;5125982;27;20228;-77
2022/04/07 07:59:23;;;;;;;4.72;2.50;;;;;;;17.91;40.04;98654.38;5130598;27;20204;-76
2022/04/07 08:01:51;;;;;;;3.08;2.63;;;;;;;17.54;41.40;98633.03;5123944;27;20704;-75
2022/04/07 08:04:18;;;;;;;4.35;2.53;;;;;;;17.64;43.33;98651.00;5114641;27;20658;-77
2022/04/07 08:06:45;;;;;;;2.78;2.58;;;;;;;17.46;42.77;98640.31;5109770;28;20200;-78
2022/04/07 08:09:13;;;;;;;5.53;3.03;;;;;;;17.61;43.24;98651.13;5122821;27;20746;-75
2022/04/07 08:11:41;;;;;;;4.25;2.85;;;;;;;17.33;43.13;98637.28;5113079;27;20209;-80
2022/04/07 08:14:08;;;;;;;5.18;2.75;;;;;;;17.43;42.46;98648.28;5091211;28;20288;-79
2022/04/07 08:16:35;;;;;;;4.85;2.55;;;;;;;17.30;43.49;98651.31;5085225;27;20235;-79
2022/04/07 08:19:03;;;;;;;3.05;2.85;;;;;;;17.07;43.59;98653.03;5118753;27;20208;-79
2022/04/07 08:21:30;;;;;;;3.90;2.60;;;;;;;16.80;44.94;98639.94;5110927;28;20209;-78
2022/04/07 08:23:57;;;;;;;5.38;2.60;;;;;;;16.77;45.83;98650.53;5110426;28;20209;-76
2022/04/07 08:26:23;;;;;;;5.07;2.78;;;;;;;16.72;47.26;98638.50;5109300;28;20251;-80
2022/04/07 08:28:50;;;;;;;5.70;2.63;;;;;;;16.57;47.61;98645.09;5109063;28;20202;-78
2022/04/07 08:31:17;;;;;;;7.05;3.10;;;;;;;16.59;48.14;98682.50;5072784;28;20293;-81
2022/04/07 08:33:44;;;;;;;5.90;3.13;;;;;;;16.58;47.92;98687.81;5108802;28;20243;-80
2022/04/07 08:36:12;;;;;;;3.63;2.63;;;;;;;16.35;48.33;98660.56;5112047;27;20201;-75
2022/04/07 08:38:39;;;;;;;5.82;2.80;;;;;;;16.48;49.15;98663.66;5120771;27;20286;-79
2022/04/07 08:41:09;;;;;;;3.33;3.03;;;;;;;16.53;55.37;98658.28;5128474;27;20650;-79
2022/04/07 08:43:38;;;;;;;4.43;2.92;;;;;;;16.46;52.07;98667.22;5093506;27;20276;-79
2022/04/07 08:46:08;;;;;;;8.07;2.90;;;;;;;16.10;52.80;98620.38;5117138;27;20271;-79
2022/04/07 08:48:38;;;;;;;7.28;3.45;;;;;;;16.28;54.64;98648.59;5118619;27;20201;-79
2022/04/07 08:51:05;;;;;;;5.25;2.90;;;;;;;15.82;55.99;98656.97;5110892;27;20711;-79
2022/04/07 08:53:34;;;;;;;7.05;3.03;;;;;;;15.50;61.97;98669.22;5108795;28;20213;-77
2022/04/07 08:56:02;;;;;;;5.82;2.40;;;;;;;15.14;67.68;98663.19;5108653;28;20201;-76
2022/04/07 08:58:29;;;;;;;5.05;2.78;;;;;;;14.78;76.15;98625.81;5108255;28;20205;-80
2022/04/07 09:00:56;;;;;;;4.75;2.50;;;;;;;14.58;83.97;98638.50;5071810;28;20685;-80
2022/04/07 09:03:23;;;;;;;17.50;7.60;;;;;;;14.34;90.98;98619.94;5108587;28;20601;-80
2022/04/07 09:05:54;;;;;;;11.05;7.10;;;;;;;14.39;95.82;98633.75;5108419;28;20202;-80
2022/04/07 09:08:21;;;;;;;11.43;4.10;;;;;;;14.40;97.20;98626.78;5107879;28;20204;-79
2022/04/07 09:10:55;;;;;;;12.70;3.95;;;;;;;14.31;100.00;98593.03;5108545;28;20208;-78
2022/04/07 09:13:22;;;;;;;9.38;3.78;;;;;;;14.47;100.00;98594.44;5108157;28;20233;-80
2022/04/07 09:15:49;;;;;;;7.13;3.22;;;;;;;14.49;100.00;98592.63;5108444;28;20201;-79
2022/04/07 09:18:24;;;;;;;6.50;2.90;;;;;;;14.30;100.00;98612.22;5107716;28;20712;-78
2022/04/07 09:20:51;;;;;;;4.80;3.15;;;;;;;14.35;100.00;98613.84;5108387;28;20795;-79
2022/04/07 09:23:18;;;;;;;5.20;3.30;;;;;;;14.32;100.00;98626.06;5108028;28;20293;-80
2022/04/07 09:25:46;;;;;;;5.07;3.78;;;;;;;14.32;100.00;98594.78;5127912;27;20760;-79
2022/04/07 09:28:25;;;;;;;5.10;3.40;;;;;;;14.71;99.44;98616.44;5127936;27;20200;-80
2022/04/07 09:30:52;;;;;;;6.03;3.20;;;;;;;14.63;93.85;98615.75;5128350;27;20295;-80
2022/04/07 09:33:23;;;;;;;7.50;3.80;;;;;;;14.84;93.94;98604.78;5128226;27;20205;-78
2022/04/07 09:36:05;;;;;;;10.40;4.03;;;;;;;15.29;100.00;98606.19;5128702;27;20269;-78
2022/04/07 09:38:32;;;;;;;9.70;4.10;;;;;;;15.33;87.98;98605.22;5127938;27;20206;-80
2022/04/07 09:41:07;;;;;;;6.68;3.80;;;;;;;15.44;87.33;98604.06;5128481;27;20207;-79
2022/04/07 09:43:44;;;;;;;12.30;4.13;;;;;;;15.56;89.84;98601.09;5127949;27;20231;-78
2022/04/07 09:46:11;;;;;;;8.70;4.18;;;;;;;15.45;88.85;98577.00;5127077;27;20679;-78
2022/04/07 09:48:38;;;;;;;8.45;3.45;;;;;;;15.79;89.65;98594.31;5128019;27;20311;-80
2022/04/07 09:51:06;;;;;;;9.20;4.25;;;;;;;16.15;94.00;98592.34;5128426;27;20763;-80
2022/04/07 09:53:37;;;;;;;9.48;5.50;;;;;;;15.78;92.43;98515.97;5127790;27;20569;-79
2022/04/07 09:56:06;;;;;;;12.57;4.97;;;;;;;16.11;88.70;98587.25;5128195;27;20212;-79
2022/04/07 09:58:34;;;;;;;5.75;3.70;;;;;;;16.12;92.04;98587.22;5127732;27;20590;-79
2022/04/07 10:01:03;;;;;;;7.93;4.70;;;;;;;15.96;94.53;98585.97;5127282;27;20292;-79
2022/04/07 10:03:31;;;;;;;6.38;4.15;;;;;;;16.00;97.31;98595.44;5127806;27;20232;-78
2022/04/07 10:05:59;;;;;;;15.20;4.18;;;;;;;16.06;96.80;98603.06;5128235;27;20287;-79
2022/04/07 10:08:26;;;;;;;5.65;3.50;;;;;;;16.11;96.83;98605.56;5127788;27;20200;-80
2022/04/07 10:10:54;;;;;;;7.38;3.17;;;;;;;15.76;94.62;98593.56;5128030;27;20197;-80
2022/04/07 10:13:21;;;;;;;10.07;3.40;;;;;;;15.70;98.21;98601.56;5127966;27;20201;-80
2022/04/07 10:15:48;;;;;;;6.68;3.85;;;;;;;15.61;100.00;98604.44;5091386;28;20601;-80
2022/04/07 10:18:25;;;;;;;11.80;4.32;;;;;;;15.57;100.00;98595.84;5127760;27;20296;-81
2022/04/07 10:20:57;;;;;;;8.13;4.70;;;;;;;15.53;100.00;98611.66;5127642;27;20222;-79
2022/04/07 10:23:39;;;;;;;9.50;3.20;;;;;;;15.52;100.00;98594.28;5127876;27;20291;-79
2022/04/07 10:26:09;;;;;;;6.60;4.40;;;;;;;15.81;100.00;98600.34;5148458;27;20261;-77
2022/04/07 10:28:36;;;;;;;5.97;4.43;;;;;;;15.91;100.00;98605.31;5148011;27;20192;-79
2022/04/07 10:31:13;;;;;;;16.50;4.20;;;;;;;16.03;100.00;98618.00;5133374;27;20206;-79
2022/04/07 10:33:46;;;;;;;9.15;3.67;;;;;;;16.01;100.00;98605.00;5114447;27;20209;-80
2022/04/07 10:36:16;;;;;;;7.50;4.47;;;;;;;15.97;100.00;98592.91;5124222;28;20204;-81
2022/04/07 10:38:46;;;;;;;10.77;6.47;;;;;;;15.81;100.00;98609.94;5126153;27;20297;-79
2022/04/07 10:41:33;;;;;;;7.60;6.10;;;;;;;15.49;100.00;98605.66;5073400;28;20205;-82
2022/04/07 10:44:08;;;;;;;17.00;7.70;;;;;;;15.31;100.00;98598.31;5117481;28;21020;-81
2022/04/07 10:46:35;;;;;;;13.50;7.72;;;;;;;15.37;100.00;98622.47;5119681;28;20224;-85
2022/04/07 10:49:07;;;;;;;10.15;7.07;;;;;;;15.09;100.00;98618.91;5113412;28;20239;-75
2022/04/07 10:51:42;;;;;;;17.45;9.63;;;;;;;14.96;100.00;98619.28;5111654;28;20293;-83
2022/04/07 10:54:09;;;;;;;10.70;7.63;;;;;;;14.86;100.00;98595.19;5107204;28;20316;-77
2022/04/07 10:56:39;;;;;;;10.68;8.15;;;;;;;14.85;100.00;98614.34;5107331;28;20229;-80
2022/04/07 10:59:14;;;;;;;14.05;10.32;;;;;;;14.56;100.00;98615.06;5107384;28;20596;-82
2022/04/07 11:02:02;;;;;;;17.50;10.95;;;;;;;14.37;100.00;98619.91;5112428;28;20205;-84
2022/04/07 11:04:55;;;;;;;21.80;12.73;;;;;;;14.27;100.00;98618.34;5119676;28;20220;-78
2022/04/07 11:07:23;;;;;;;22.20;14.00;;;;;;;13.78;100.00;98600.34;5118186;28;20213;-80
2022/04/07 11:09:53;;;;;;;22.25;13.40;;;;;;;13.45;100.00;98582.00;5107383;28;20228;-83
2022/04/07 11:12:23;;;;;;;16.10;11.18;;;;;;;13.56;100.00;98619.91;5110082;28;20205;-80
2022/04/07 11:14:51;;;;;;;24.60;15.18;;;;;;;13.55;100.00;98614.75;5111182;28;20243;-84
2022/04/07 11:17:30;;;;;;;26.60;14.70;;;;;;;13.54;100.00;98607.81;5111898;28;20202;-77
2022/04/07 11:20:07;;;;;;;19.60;13.20;;;;;;;13.23;100.00;98595.44;5110486;27;20737;-78
2022/04/07 11:22:51;;;;;;;18.30;13.13;;;;;;;13.16;100.00;98580.78;5112065;28;20624;-82
2022/04/07 11:25:23;;;;;;;20.02;14.02;;;;;;;13.26;100.00;98605.78;5111701;28;20236;-79
2022/04/07 11:28:09;;;;;;;18.08;13.50;;;;;;;13.23;100.00;98608.44;5110761;28;20209;-77
2022/04/07 11:30:41;;;;;;;16.70;12.10;;;;;;;13.21;100.00;98612.81;5110617;28;20205;-83
2022/04/07 11:33:39;;;;;;;15.25;11.45;;;;;;;13.19;100.00;98627.59;5110952;28;20206;-84
2022/04/07 11:36:33;;;;;;;19.15;13.10;;;;;;;12.84;100.00;98588.34;5110973;28;20244;-79